createdAt,value
2023-04-16T00:00:00.983Z,25.85
2023-04-16T00:00:13.227Z,25.42
2023-04-16T00:00:25.508Z,24.02
2023-04-16T00:00:37.767Z,23.55
2023-04-16T00:00:50.112Z,23.20
2023-04-16T00:01:02.252Z,22.55
2023-04-16T00:01:14.521Z,19.20
2023-04-16T00:01:27.032Z,18.55
2023-04-16T00:01:39.476Z,18.67
2023-04-16T00:01:51.930Z,19.00
2023-04-16T00:02:04.132Z,19.45
2023-04-16T00:02:16.481Z,19.00
2023-04-16T00:02:28.433Z,19.73
2023-04-16T00:02:40.681Z,22.13
2023-04-16T00:02:53.671Z,22.73
2023-04-16T00:03:06.350Z,21.10
2023-04-16T00:03:18.582Z,20.95
2023-04-16T00:03:30.786Z,21.77
2023-04-16T00:03:42.999Z,23.25
2023-04-16T00:03:55.969Z,24.17
2023-04-16T00:04:09.050Z,24.27
2023-04-16T00:04:22.778Z,22.55
2023-04-16T00:04:35.437Z,23.17
2023-04-16T00:04:48.092Z,20.42
2023-04-16T00:05:00.370Z,20.05
2023-04-16T00:05:13.895Z,21.42
2023-04-16T00:05:26.303Z,23.52
2023-04-16T00:05:38.941Z,21.92
2023-04-16T00:05:51.395Z,23.33
2023-04-16T00:06:03.918Z,23.45
2023-04-16T00:06:16.260Z,23.63
2023-04-16T00:06:28.613Z,20.52
2023-04-16T00:06:40.420Z,21.70
2023-04-16T00:06:53.160Z,24.48
2023-04-16T00:07:05.800Z,27.40
2023-04-16T00:07:18.299Z,28.95
2023-04-16T00:07:30.621Z,28.33
2023-04-16T00:07:42.849Z,27.17
2023-04-16T00:07:55.719Z,23.27
2023-04-16T00:08:07.920Z,22.55
2023-04-16T00:08:19.618Z,24.80
2023-04-16T00:08:31.763Z,26.00
2023-04-16T00:08:44.382Z,24.40
2023-04-16T00:08:56.615Z,22.02
2023-04-16T00:09:09.114Z,21.15
2023-04-16T00:09:21.300Z,21.55
2023-04-16T00:09:33.311Z,20.92
2023-04-16T00:09:45.782Z,22.33
2023-04-16T00:09:57.796Z,21.40
2023-04-16T00:10:10.249Z,21.35
2023-04-16T00:10:22.411Z,22.50
2023-04-16T00:10:34.915Z,23.63
2023-04-16T00:10:47.130Z,24.50
2023-04-16T00:10:59.284Z,22.75
2023-04-16T00:11:11.872Z,25.48
2023-04-16T00:11:24.288Z,23.60
2023-04-16T00:11:36.643Z,21.58
2023-04-16T00:11:48.722Z,21.05
2023-04-16T00:12:00.942Z,20.73
2023-04-16T00:12:13.029Z,21.27
2023-04-16T00:12:25.354Z,22.45
2023-04-16T00:12:37.772Z,23.25
2023-04-16T00:12:50.136Z,25.25
2023-04-16T00:13:02.819Z,26.02
2023-04-16T00:13:15.052Z,25.05
2023-04-16T00:13:27.840Z,21.65
2023-04-16T00:13:40.299Z,22.98
2023-04-16T00:13:52.520Z,23.17
2023-04-16T00:14:04.512Z,23.00
2023-04-16T00:14:16.969Z,22.13
2023-04-16T00:14:30.089Z,22.60
2023-04-16T00:14:42.337Z,25.08
2023-04-16T00:14:54.786Z,25.10
2023-04-16T00:15:07.462Z,26.98
2023-04-16T00:15:19.442Z,29.67
2023-04-16T00:15:31.714Z,28.88
2023-04-16T00:15:44.060Z,24.08
2023-04-16T00:15:56.437Z,22.60
2023-04-16T00:16:08.801Z,22.35
2023-04-16T00:16:20.995Z,23.25
2023-04-16T00:16:33.139Z,23.58
2023-04-16T00:16:45.205Z,24.63
2023-04-16T00:16:58.029Z,24.38
2023-04-16T00:17:10.337Z,22.75
2023-04-16T00:17:22.740Z,23.48
2023-04-16T00:17:35.263Z,23.52
2023-04-16T00:17:47.731Z,23.30
2023-04-16T00:18:00.850Z,23.92
2023-04-16T00:18:12.898Z,26.45
2023-04-16T00:18:24.993Z,27.17
2023-04-16T00:18:37.143Z,26.98
2023-04-16T00:18:49.615Z,26.10
2023-04-16T00:19:02.393Z,24.55
2023-04-16T00:19:14.518Z,24.10
2023-04-16T00:19:27.873Z,27.63
2023-04-16T00:19:40.366Z,25.45
2023-04-16T00:19:52.772Z,24.38
2023-04-16T00:20:06.478Z,24.38
2023-04-16T00:20:18.704Z,24.63
2023-04-16T00:20:30.802Z,23.50
2023-04-16T00:20:42.896Z,23.95
2023-04-16T00:20:55.193Z,23.27
2023-04-16T00:21:07.340Z,22.42
2023-04-16T00:21:20.123Z,24.55
2023-04-16T00:21:32.350Z,29.50
2023-04-16T00:21:44.803Z,29.15
2023-04-16T00:21:57.268Z,25.40
2023-04-16T00:22:09.733Z,24.83
2023-04-16T00:22:22.378Z,23.85
2023-04-16T00:22:34.598Z,23.00
2023-04-16T00:22:46.777Z,23.92
2023-04-16T00:22:59.314Z,29.10
2023-04-16T00:23:11.751Z,31.27
2023-04-16T00:23:23.515Z,25.55
2023-04-16T00:23:36.086Z,25.42
2023-04-16T00:23:48.640Z,23.08
2023-04-16T00:24:00.872Z,23.50
2023-04-16T00:24:12.900Z,22.48
2023-04-16T00:24:25.244Z,21.70
2023-04-16T00:24:37.125Z,23.33
2023-04-16T00:24:49.432Z,24.75
2023-04-16T00:25:02.529Z,24.60
2023-04-16T00:25:15.197Z,23.02
2023-04-16T00:25:27.393Z,21.60
2023-04-16T00:25:39.836Z,21.73
2023-04-16T00:25:51.907Z,21.75
2023-04-16T00:26:04.712Z,21.50
2023-04-16T00:26:17.001Z,22.35
2023-04-16T00:26:30.983Z,22.08
2023-04-16T00:26:44.260Z,21.60
2023-04-16T00:26:56.244Z,22.30
2023-04-16T00:27:08.609Z,21.70
2023-04-16T00:27:21.335Z,22.70
2023-04-16T00:27:34.340Z,22.02
2023-04-16T00:27:46.715Z,22.95
2023-04-16T00:27:58.871Z,23.90
2023-04-16T00:28:11.238Z,28.08
2023-04-16T00:28:23.488Z,25.20
2023-04-16T00:28:35.701Z,22.95
2023-04-16T00:28:47.975Z,23.88
2023-04-16T00:29:01.817Z,25.05
2023-04-16T00:29:14.112Z,22.88
2023-04-16T00:29:28.940Z,23.50
2023-04-16T00:29:42.060Z,24.33
2023-04-16T00:29:54.363Z,21.90
2023-04-16T00:30:08.350Z,20.70
2023-04-16T00:30:20.870Z,21.05
2023-04-16T00:30:33.278Z,21.10
2023-04-16T00:30:45.839Z,22.00
2023-04-16T00:30:58.314Z,21.42
2023-04-16T00:31:10.625Z,22.83
2023-04-16T00:31:27.691Z,23.45
2023-04-16T00:31:41.731Z,24.50
2023-04-16T00:31:53.919Z,23.23
2023-04-16T00:32:06.342Z,21.27
2023-04-16T00:32:18.514Z,20.13
2023-04-16T00:32:30.914Z,20.65
2023-04-16T00:32:43.488Z,22.10
2023-04-16T00:32:56.507Z,21.80
2023-04-16T00:33:08.700Z,20.73
2023-04-16T00:33:20.605Z,20.42
2023-04-16T00:33:32.731Z,20.42
2023-04-16T00:33:46.529Z,21.42
2023-04-16T00:33:59.376Z,23.00
2023-04-16T00:34:11.617Z,22.98
2023-04-16T00:34:24.049Z,24.33
2023-04-16T00:34:37.301Z,23.38
2023-04-16T00:34:50.006Z,23.45
2023-04-16T00:35:02.571Z,22.80
2023-04-16T00:35:14.715Z,24.73
2023-04-16T00:35:27.035Z,24.60
2023-04-16T00:35:39.519Z,24.60
2023-04-16T00:35:52.423Z,25.60
2023-04-16T00:36:06.664Z,22.63
2023-04-16T00:36:19.521Z,23.98
2023-04-16T00:36:32.214Z,23.92
2023-04-16T00:36:44.576Z,21.65
2023-04-16T00:36:59.429Z,23.80
2023-04-16T00:37:11.924Z,22.95
2023-04-16T00:37:24.296Z,22.23
2023-04-16T00:37:36.959Z,24.00
2023-04-16T00:37:49.647Z,23.45
2023-04-16T00:38:02.365Z,22.55
2023-04-16T00:38:14.800Z,22.98
2023-04-16T00:38:26.932Z,21.05
2023-04-16T00:38:38.965Z,22.33
2023-04-16T00:38:51.158Z,22.92
2023-04-16T00:39:03.172Z,19.52
2023-04-16T00:39:15.417Z,19.67
2023-04-16T00:39:28.614Z,23.27
2023-04-16T00:39:40.930Z,24.27
2023-04-16T00:39:53.016Z,24.08
2023-04-16T00:40:06.548Z,20.23
2023-04-16T00:40:18.722Z,19.85
2023-04-16T00:40:31.546Z,19.65
2023-04-16T00:40:43.998Z,20.10
2023-04-16T00:40:56.004Z,21.30
2023-04-16T00:41:10.751Z,22.98
2023-04-16T00:41:22.727Z,20.45
2023-04-16T00:41:35.148Z,19.27
2023-04-16T00:41:47.413Z,20.73
2023-04-16T00:41:59.712Z,21.70
2023-04-16T00:42:11.943Z,19.27
2023-04-16T00:42:24.102Z,22.35
2023-04-16T00:42:36.345Z,23.17
2023-04-16T00:42:48.807Z,19.60
2023-04-16T00:43:00.979Z,19.50
2023-04-16T00:43:21.536Z,20.75
2023-04-16T00:43:37.211Z,21.02
2023-04-16T00:43:49.646Z,19.42
2023-04-16T00:44:01.883Z,21.27
2023-04-16T00:44:14.024Z,21.42
2023-04-16T00:44:26.154Z,21.52
2023-04-16T00:44:39.086Z,19.77
2023-04-16T00:44:51.836Z,22.13
2023-04-16T00:45:04.343Z,21.25
2023-04-16T00:45:16.698Z,20.96
2023-04-16T00:45:29.468Z,19.70
2023-04-16T00:45:44.172Z,22.58
2023-04-16T00:45:57.326Z,25.25
2023-04-16T00:46:10.559Z,24.52
2023-04-16T00:46:24.275Z,22.50
2023-04-16T00:46:37.930Z,19.27
2023-04-16T00:46:50.930Z,19.70
2023-04-16T00:47:03.505Z,22.65
2023-04-16T00:47:16.240Z,22.73
2023-04-16T00:47:29.567Z,20.42
2023-04-16T00:47:41.681Z,19.95
2023-04-16T00:47:54.311Z,19.35
2023-04-16T00:48:07.000Z,19.40
2023-04-16T00:48:20.383Z,19.90
2023-04-16T00:48:33.273Z,18.20
2023-04-16T00:48:46.070Z,18.40
2023-04-16T00:49:00.194Z,18.65
2023-04-16T00:49:12.806Z,20.45
2023-04-16T00:49:25.916Z,20.88
2023-04-16T00:49:39.670Z,19.48
2023-04-16T00:49:51.750Z,18.58
2023-04-16T00:50:05.007Z,19.13
2023-04-16T00:50:19.419Z,20.10
2023-04-16T00:50:32.107Z,19.67
2023-04-16T00:50:44.675Z,21.23
2023-04-16T00:50:57.730Z,19.70
2023-04-16T00:51:09.973Z,17.70
2023-04-16T00:51:22.808Z,17.42
2023-04-16T00:51:36.592Z,17.50
2023-04-16T00:51:49.314Z,18.38
2023-04-16T00:52:02.024Z,19.92
2023-04-16T00:52:14.618Z,18.95
2023-04-16T00:52:27.534Z,18.63
2023-04-16T00:52:40.474Z,20.38
2023-04-16T00:52:53.174Z,20.17
2023-04-16T00:53:05.767Z,20.42
2023-04-16T00:53:18.218Z,19.83
2023-04-16T00:53:31.416Z,18.55
2023-04-16T00:53:45.923Z,17.98
2023-04-16T00:53:58.385Z,19.10
2023-04-16T00:54:10.819Z,20.73
2023-04-16T00:54:26.426Z,19.30
2023-04-16T00:54:39.179Z,19.17
2023-04-16T00:54:51.566Z,19.48
2023-04-16T00:55:04.597Z,20.17
2023-04-16T00:55:16.930Z,21.67
2023-04-16T00:55:29.939Z,20.63
2023-04-16T00:55:42.047Z,17.02
2023-04-16T00:55:55.596Z,18.88
2023-04-16T00:56:08.232Z,20.25
2023-04-16T00:56:22.305Z,18.60
2023-04-16T00:56:36.204Z,18.00
2023-04-16T00:56:48.841Z,18.17
2023-04-16T00:57:01.239Z,17.05
2023-04-16T00:57:14.288Z,17.65
2023-04-16T00:57:26.712Z,21.23
2023-04-16T00:57:38.868Z,21.25
2023-04-16T00:57:52.477Z,20.08
2023-04-16T00:58:07.509Z,18.74
2023-04-16T00:58:20.237Z,18.73
2023-04-16T00:58:33.446Z,19.67
2023-04-16T00:58:45.951Z,20.00
2023-04-16T00:58:59.506Z,19.65
2023-04-16T00:59:12.037Z,18.77
2023-04-16T00:59:24.537Z,17.17
2023-04-16T00:59:37.525Z,16.27
2023-04-16T00:59:50.363Z,16.55
2023-04-16T01:00:03.144Z,16.75
2023-04-16T01:00:15.801Z,16.63
2023-04-16T01:00:28.634Z,18.50
2023-04-16T01:00:40.850Z,20.67
2023-04-16T01:00:53.051Z,21.02
2023-04-16T01:01:05.974Z,19.73
2023-04-16T01:01:18.174Z,17.85
2023-04-16T01:01:30.408Z,17.48
2023-04-16T01:01:43.275Z,17.13
2023-04-16T01:01:55.141Z,17.50
2023-04-16T01:02:08.118Z,17.98
2023-04-16T01:02:20.862Z,18.73
2023-04-16T01:02:36.279Z,17.90
2023-04-16T01:02:48.418Z,17.75
2023-04-16T01:03:00.782Z,20.15
2023-04-16T01:03:13.441Z,20.38
2023-04-16T01:03:35.000Z,18.05
2023-04-16T01:03:49.067Z,19.52
2023-04-16T01:04:02.157Z,19.77
2023-04-16T01:04:14.963Z,18.10
2023-04-16T01:04:28.401Z,17.67
2023-04-16T01:04:42.341Z,19.77
2023-04-16T01:04:55.471Z,20.55
2023-04-16T01:05:08.298Z,19.88
2023-04-16T01:05:20.360Z,20.13
2023-04-16T01:05:32.938Z,19.00
2023-04-16T01:05:46.186Z,17.63
2023-04-16T01:05:58.379Z,16.50
2023-04-16T01:06:11.758Z,16.52
2023-04-16T01:06:23.777Z,17.30
2023-04-16T01:06:35.897Z,17.23
2023-04-16T01:06:48.006Z,17.35
2023-04-16T01:07:00.681Z,17.63
2023-04-16T01:07:13.037Z,17.70
2023-04-16T01:07:25.269Z,16.25
2023-04-16T01:07:37.384Z,16.58
2023-04-16T01:07:50.697Z,16.30
2023-04-16T01:08:03.536Z,16.45
2023-04-16T01:08:18.210Z,16.25
2023-04-16T01:08:30.812Z,16.10
2023-04-16T01:08:43.462Z,15.65
2023-04-16T01:08:55.725Z,16.50
2023-04-16T01:09:08.480Z,17.10
2023-04-16T01:09:21.203Z,19.10
2023-04-16T01:09:33.635Z,17.20
2023-04-16T01:09:45.739Z,16.05
2023-04-16T01:09:58.242Z,15.77
2023-04-16T01:10:10.548Z,16.08
2023-04-16T01:10:22.922Z,17.52
2023-04-16T01:10:35.247Z,17.98
2023-04-16T01:10:47.772Z,17.05
2023-04-16T01:10:59.846Z,16.90
2023-04-16T01:11:11.963Z,15.50
2023-04-16T01:11:24.836Z,15.05
2023-04-16T01:11:36.969Z,15.52
2023-04-16T01:11:50.541Z,16.63
2023-04-16T01:12:02.916Z,18.95
2023-04-16T01:12:15.714Z,20.88
2023-04-16T01:12:27.811Z,19.98
2023-04-16T01:12:40.166Z,17.02
2023-04-16T01:12:52.321Z,16.80
2023-04-16T01:13:04.991Z,18.20
2023-04-16T01:13:17.654Z,19.90
2023-04-16T01:13:29.710Z,18.98
2023-04-16T01:13:41.901Z,16.92
2023-04-16T01:13:54.186Z,16.40
2023-04-16T01:14:06.360Z,15.48
2023-04-16T01:14:19.235Z,15.77
2023-04-16T01:14:31.074Z,17.00
2023-04-16T01:14:43.440Z,17.70
2023-04-16T01:14:55.682Z,23.60
2023-04-16T01:15:09.636Z,22.90
2023-04-16T01:15:21.718Z,18.05
2023-04-16T01:15:34.658Z,16.38
2023-04-16T01:15:47.068Z,16.02
2023-04-16T01:15:59.777Z,16.25
2023-04-16T01:16:13.014Z,15.52
2023-04-16T01:16:24.964Z,17.17
2023-04-16T01:16:37.426Z,18.67
2023-04-16T01:16:49.635Z,19.65
2023-04-16T01:17:01.498Z,16.80
2023-04-16T01:17:13.705Z,15.80
2023-04-16T01:17:25.746Z,15.75
2023-04-16T01:17:38.563Z,15.93
2023-04-16T01:17:51.420Z,19.58
2023-04-16T01:18:03.631Z,19.42
2023-04-16T01:18:17.185Z,16.63
2023-04-16T01:18:29.146Z,16.27
2023-04-16T01:18:41.470Z,16.33
2023-04-16T01:18:54.222Z,17.42
2023-04-16T01:19:06.579Z,19.20
2023-04-16T01:19:18.798Z,17.83
2023-04-16T01:19:31.366Z,17.05
2023-04-16T01:19:44.826Z,19.27
2023-04-16T01:19:59.768Z,21.08
2023-04-16T01:20:11.947Z,18.05
2023-04-16T01:20:24.809Z,16.27
2023-04-16T01:20:38.238Z,16.40
2023-04-16T01:20:50.678Z,15.68
2023-04-16T01:21:04.701Z,14.95
2023-04-16T01:21:18.307Z,16.10
2023-04-16T01:21:30.762Z,18.75
2023-04-16T01:21:44.229Z,18.83
2023-04-16T01:21:56.709Z,18.70
2023-04-16T01:22:09.376Z,16.27
2023-04-16T01:22:21.870Z,15.60
2023-04-16T01:22:34.535Z,16.13
2023-04-16T01:22:46.560Z,15.50
2023-04-16T01:22:59.326Z,17.45
2023-04-16T01:23:12.121Z,21.27
2023-04-16T01:23:24.285Z,22.25
2023-04-16T01:23:36.686Z,18.10
2023-04-16T01:23:49.208Z,15.35
2023-04-16T01:24:03.062Z,15.43
2023-04-16T01:24:15.593Z,15.50
2023-04-16T01:24:27.983Z,16.90
2023-04-16T01:24:40.498Z,16.63
2023-04-16T01:24:55.711Z,16.05
2023-04-16T01:25:13.439Z,16.38
2023-04-16T01:25:25.503Z,18.88
2023-04-16T01:25:37.530Z,19.13
2023-04-16T01:25:49.897Z,15.35
2023-04-16T01:26:02.229Z,14.98
2023-04-16T01:26:14.608Z,15.15
2023-04-16T01:26:27.196Z,15.10
2023-04-16T01:26:38.973Z,14.93
2023-04-16T01:26:51.732Z,15.35
2023-04-16T01:27:04.614Z,15.55
2023-04-16T01:27:17.076Z,15.80
2023-04-16T01:27:29.432Z,14.80
2023-04-16T01:27:41.692Z,14.00
2023-04-16T01:27:54.014Z,14.90
2023-04-16T01:28:06.118Z,16.40
2023-04-16T01:28:18.462Z,15.82
2023-04-16T01:28:31.367Z,15.32
2023-04-16T01:28:43.836Z,16.85
2023-04-16T01:28:56.229Z,19.02
2023-04-16T01:29:08.743Z,18.83
2023-04-16T01:29:21.116Z,15.25
2023-04-16T01:29:35.028Z,15.10
2023-04-16T01:29:47.226Z,15.05
2023-04-16T01:30:06.042Z,15.68
2023-04-16T01:30:28.516Z,17.08
2023-04-16T01:30:50.383Z,14.95
2023-04-16T01:31:24.617Z,17.05
2023-04-16T01:32:00.470Z,15.27
2023-04-16T01:32:24.344Z,15.48
2023-04-16T01:32:36.806Z,15.23
2023-04-16T01:32:48.721Z,15.13
2023-04-16T01:33:01.820Z,15.52
2023-04-16T01:33:15.606Z,15.23
2023-04-16T01:33:27.983Z,14.35
2023-04-16T01:33:40.701Z,14.65
2023-04-16T01:33:52.923Z,14.80
2023-04-16T01:34:05.189Z,15.38
2023-04-16T01:34:17.888Z,15.40
2023-04-16T01:34:31.132Z,15.45
2023-04-16T01:34:43.916Z,15.13
2023-04-16T01:34:56.667Z,14.60
2023-04-16T01:35:09.180Z,16.17
2023-04-16T01:35:21.436Z,16.58
2023-04-16T01:35:33.581Z,15.27
2023-04-16T01:35:47.275Z,16.35
2023-04-16T01:36:01.101Z,14.77
2023-04-16T01:36:13.093Z,15.35
2023-04-16T01:36:25.603Z,15.00
2023-04-16T01:36:38.005Z,16.15
2023-04-16T01:36:50.013Z,15.43
2023-04-16T01:37:03.765Z,14.73
2023-04-16T01:37:17.732Z,15.18
2023-04-16T01:37:31.682Z,19.60
2023-04-16T01:37:44.277Z,19.40
2023-04-16T01:37:56.742Z,15.85
2023-04-16T01:38:10.237Z,13.77
2023-04-16T01:38:22.259Z,13.57
2023-04-16T01:38:34.705Z,14.30
2023-04-16T01:38:47.821Z,14.63
2023-04-16T01:39:00.163Z,14.75
2023-04-16T01:39:13.104Z,16.83
2023-04-16T01:39:25.298Z,17.85
2023-04-16T01:39:37.720Z,15.70
2023-04-16T01:39:50.107Z,14.20
2023-04-16T01:40:02.039Z,13.48
2023-04-16T01:40:14.794Z,14.00
2023-04-16T01:40:27.370Z,15.57
2023-04-16T01:40:39.547Z,16.17
2023-04-16T01:40:56.011Z,15.95
2023-04-16T01:41:10.012Z,17.15
2023-04-16T01:41:22.090Z,15.35
2023-04-16T01:41:34.281Z,14.77
2023-04-16T01:41:46.524Z,14.40
2023-04-16T01:41:59.063Z,13.98
2023-04-16T01:42:11.460Z,14.18
2023-04-16T01:42:24.902Z,14.35
2023-04-16T01:42:37.704Z,14.35
2023-04-16T01:42:49.877Z,14.20
2023-04-16T01:43:02.237Z,13.93
2023-04-16T01:43:15.800Z,13.60
2023-04-16T01:43:28.063Z,14.55
2023-04-16T01:43:41.123Z,15.13
2023-04-16T01:43:53.367Z,14.07
2023-04-16T01:44:05.637Z,14.13
2023-04-16T01:44:18.105Z,14.27
2023-04-16T01:44:30.837Z,14.68
2023-04-16T01:44:42.980Z,16.75
2023-04-16T01:44:54.882Z,17.02
2023-04-16T01:45:08.088Z,14.60
2023-04-16T01:45:20.504Z,14.30
2023-04-16T01:45:33.323Z,13.88
2023-04-16T01:45:45.362Z,14.07
2023-04-16T01:46:14.196Z,14.68
2023-04-16T01:46:29.496Z,14.63
2023-04-16T01:46:42.118Z,14.10
2023-04-16T01:46:54.752Z,13.82
2023-04-16T01:47:06.972Z,14.02
2023-04-16T01:47:19.312Z,13.98
2023-04-16T01:47:31.419Z,14.18
2023-04-16T01:47:44.348Z,14.45
2023-04-16T01:47:56.610Z,15.05
2023-04-16T01:48:09.372Z,15.57
2023-04-16T01:48:21.404Z,15.40
2023-04-16T01:48:33.795Z,16.70
2023-04-16T01:48:46.185Z,15.70
2023-04-16T01:48:58.138Z,14.65
2023-04-16T01:49:10.310Z,13.43
2023-04-16T01:49:22.868Z,13.25
2023-04-16T01:49:34.938Z,14.02
2023-04-16T01:49:47.456Z,14.52
2023-04-16T01:49:59.688Z,14.13
2023-04-16T01:50:11.858Z,13.73
2023-04-16T01:50:23.950Z,13.13
2023-04-16T01:50:36.334Z,13.25
2023-04-16T01:50:50.211Z,13.30
2023-04-16T01:51:02.697Z,12.88
2023-04-16T01:51:15.367Z,12.98
2023-04-16T01:51:28.156Z,12.75
2023-04-16T01:51:40.487Z,13.50
2023-04-16T01:51:52.664Z,14.63
2023-04-16T01:52:05.646Z,14.55
2023-04-16T01:52:18.392Z,13.68
2023-04-16T01:52:31.056Z,16.02
2023-04-16T01:52:43.427Z,15.48
2023-04-16T01:52:56.124Z,13.77
2023-04-16T01:53:08.750Z,15.43
2023-04-16T01:53:21.138Z,16.10
2023-04-16T01:53:34.337Z,14.15
2023-04-16T01:53:47.992Z,14.50
2023-04-16T01:54:00.716Z,17.30
2023-04-16T01:54:13.894Z,15.70
2023-04-16T01:54:26.140Z,14.27
2023-04-16T01:54:38.507Z,14.85
2023-04-16T01:54:50.666Z,14.35
2023-04-16T01:55:02.774Z,13.30
2023-04-16T01:55:14.958Z,12.90
2023-04-16T01:55:27.362Z,12.68
2023-04-16T01:55:39.327Z,13.18
2023-04-16T01:55:51.860Z,14.38
2023-04-16T01:56:04.688Z,14.40
2023-04-16T01:56:17.826Z,13.43
2023-04-16T01:56:30.061Z,12.82
2023-04-16T01:56:42.191Z,14.35
2023-04-16T01:56:54.594Z,14.77
2023-04-16T01:57:07.699Z,13.07
2023-04-16T01:57:20.426Z,13.00
2023-04-16T01:57:32.652Z,14.13
2023-04-16T01:57:44.637Z,13.88
2023-04-16T01:57:58.489Z,14.75
2023-04-16T01:58:14.386Z,13.80
2023-04-16T01:58:28.539Z,15.77
2023-04-16T01:58:41.156Z,16.05
2023-04-16T01:58:53.017Z,15.68
2023-04-16T01:59:06.680Z,15.50
2023-04-16T01:59:24.020Z,13.57
2023-04-16T01:59:36.192Z,14.35
2023-04-16T01:59:49.090Z,15.52
2023-04-16T02:00:02.368Z,15.68
2023-04-16T02:00:15.286Z,14.15
2023-04-16T02:00:33.919Z,18.05
2023-04-16T02:00:46.390Z,22.45
2023-04-16T02:00:59.423Z,19.50
2023-04-16T02:01:12.533Z,14.35
2023-04-16T02:01:25.491Z,15.63
2023-04-16T02:01:37.715Z,15.73
2023-04-16T02:01:50.411Z,15.77
2023-04-16T02:02:07.587Z,16.23
2023-04-16T02:02:20.352Z,13.52
2023-04-16T02:02:32.922Z,12.73
2023-04-16T02:02:45.309Z,12.75
2023-04-16T02:03:01.728Z,14.77
2023-04-16T02:03:14.389Z,16.15
2023-04-16T02:03:26.722Z,14.50
2023-04-16T02:03:39.124Z,14.32
2023-04-16T02:03:51.647Z,13.98
2023-04-16T02:04:04.604Z,17.90
2023-04-16T02:04:17.001Z,17.40
2023-04-16T02:04:29.361Z,13.52
2023-04-16T02:04:42.252Z,14.20
2023-04-16T02:04:54.426Z,14.30
2023-04-16T02:05:06.865Z,14.43
2023-04-16T02:05:19.354Z,15.35
2023-04-16T02:05:32.721Z,15.00
2023-04-16T02:05:45.389Z,13.43
2023-04-16T02:05:58.997Z,13.43
2023-04-16T02:06:13.967Z,13.45
2023-04-16T02:06:26.406Z,13.75
2023-04-16T02:06:39.312Z,14.65
2023-04-16T02:06:51.906Z,14.15
2023-04-16T02:07:04.384Z,13.63
2023-04-16T02:07:16.579Z,13.23
2023-04-16T02:07:28.912Z,13.63
2023-04-16T02:07:40.898Z,13.60
2023-04-16T02:07:53.774Z,13.65
2023-04-16T02:08:06.459Z,13.98
2023-04-16T02:08:19.203Z,14.32
2023-04-16T02:08:33.341Z,14.10
2023-04-16T02:08:45.550Z,13.93
2023-04-16T02:09:00.268Z,14.68
2023-04-16T02:09:12.484Z,14.45
2023-04-16T02:09:25.405Z,13.48
2023-04-16T02:09:38.388Z,15.05
2023-04-16T02:09:52.313Z,15.00
2023-04-16T02:10:05.132Z,12.90
2023-04-16T02:10:19.053Z,13.40
2023-04-16T02:10:31.870Z,13.18
2023-04-16T02:10:46.090Z,12.77
2023-04-16T02:10:58.626Z,12.85
2023-04-16T02:11:12.113Z,13.38
2023-04-16T02:11:24.589Z,12.90
2023-04-16T02:11:36.993Z,12.52
2023-04-16T02:11:49.442Z,12.52
2023-04-16T02:12:01.870Z,14.73
2023-04-16T02:12:14.725Z,17.17
2023-04-16T02:12:26.989Z,17.98
2023-04-16T02:12:39.169Z,16.10
2023-04-16T02:12:51.939Z,14.35
2023-04-16T02:13:04.826Z,13.88
2023-04-16T02:13:17.339Z,12.75
2023-04-16T02:13:31.873Z,15.25
2023-04-16T02:13:44.293Z,16.48
2023-04-16T02:13:56.658Z,17.25
2023-04-16T02:14:09.202Z,16.05
2023-04-16T02:14:21.897Z,16.70
2023-04-16T02:14:34.389Z,15.80
2023-04-16T02:14:47.583Z,13.95
2023-04-16T02:15:01.893Z,13.55
2023-04-16T02:15:15.504Z,13.60
2023-04-16T02:15:28.249Z,13.75
2023-04-16T02:15:44.816Z,13.40
2023-04-16T02:15:57.994Z,13.48
2023-04-16T02:16:28.188Z,17.75
2023-04-16T02:16:50.305Z,13.75
2023-04-16T02:17:23.231Z,15.02
2023-04-16T02:17:36.925Z,15.00
2023-04-16T02:17:54.838Z,14.57
2023-04-16T02:18:07.892Z,18.35
2023-04-16T02:18:21.028Z,19.25
2023-04-16T02:18:34.314Z,17.70
2023-04-16T02:18:47.327Z,13.82
2023-04-16T02:19:01.517Z,13.23
2023-04-16T02:19:17.948Z,14.00
2023-04-16T02:19:30.727Z,15.00
2023-04-16T02:19:44.262Z,14.32
2023-04-16T02:19:57.052Z,15.26
2023-04-16T02:20:10.755Z,13.85
2023-04-16T02:20:40.729Z,14.95
2023-04-16T02:20:53.023Z,16.13
2023-04-16T02:21:07.824Z,15.70
2023-04-16T02:21:20.137Z,14.13
2023-04-16T02:21:32.635Z,13.15
2023-04-16T02:21:45.408Z,13.57
2023-04-16T02:21:57.533Z,13.35
2023-04-16T02:22:10.471Z,14.65
2023-04-16T02:22:22.972Z,15.80
2023-04-16T02:22:35.304Z,13.40
2023-04-16T02:22:47.902Z,12.88
2023-04-16T02:23:03.621Z,12.68
2023-04-16T02:23:16.368Z,12.30
2023-04-16T02:23:29.325Z,13.43
2023-04-16T02:23:43.160Z,13.65
2023-04-16T02:23:55.786Z,13.45
2023-04-16T02:24:13.189Z,13.40
2023-04-16T02:24:26.538Z,15.65
2023-04-16T02:24:39.186Z,15.63
2023-04-16T02:24:54.717Z,14.63
2023-04-16T02:25:07.322Z,13.98
2023-04-16T02:25:20.066Z,13.48
2023-04-16T02:25:33.296Z,13.57
2023-04-16T02:25:47.461Z,13.68
2023-04-16T02:26:00.665Z,13.40
2023-04-16T02:26:13.912Z,15.10
2023-04-16T02:26:26.679Z,16.48
2023-04-16T02:26:40.826Z,15.15
2023-04-16T02:26:58.885Z,13.32
2023-04-16T02:27:11.303Z,15.45
2023-04-16T02:27:23.925Z,17.02
2023-04-16T02:27:41.418Z,13.60
2023-04-16T02:28:08.000Z,13.13
2023-04-16T02:28:24.990Z,14.60
2023-04-16T02:28:37.546Z,13.70
2023-04-16T02:28:51.252Z,13.88
2023-04-16T02:29:11.540Z,13.52
2023-04-16T02:29:28.634Z,14.40
2023-04-16T02:29:47.158Z,13.25
2023-04-16T02:30:02.801Z,13.10
2023-04-16T02:30:17.071Z,13.43
2023-04-16T02:30:30.232Z,14.25
2023-04-16T02:30:42.820Z,13.43
2023-04-16T02:30:56.607Z,14.10
2023-04-16T02:31:08.520Z,13.08
2023-04-16T02:31:26.407Z,14.52
2023-04-16T02:31:39.165Z,13.68
2023-04-16T02:31:52.665Z,12.02
2023-04-16T02:32:06.086Z,11.45
2023-04-16T02:32:19.898Z,13.65
2023-04-16T02:32:33.065Z,13.80
2023-04-16T02:32:45.684Z,13.45
2023-04-16T02:32:59.642Z,12.93
2023-04-16T02:33:14.083Z,13.07
2023-04-16T02:33:37.441Z,14.57
2023-04-16T02:33:49.543Z,14.90
2023-04-16T02:34:02.411Z,17.10
2023-04-16T02:34:15.173Z,14.13
2023-04-16T02:34:27.563Z,12.15
2023-04-16T02:34:40.264Z,12.55
2023-04-16T02:34:53.371Z,12.52
2023-04-16T02:35:06.721Z,12.25
2023-04-16T02:35:19.077Z,11.77
2023-04-16T02:35:31.446Z,13.70
2023-04-16T02:35:43.678Z,14.95
2023-04-16T02:35:55.797Z,14.15
2023-04-16T02:36:09.866Z,18.95
2023-04-16T02:36:22.245Z,18.36
2023-04-16T02:36:34.265Z,15.32
2023-04-16T02:36:47.306Z,14.18
2023-04-16T02:36:59.616Z,13.70
2023-04-16T02:37:11.896Z,15.60
2023-04-16T02:37:24.577Z,14.50
2023-04-16T02:37:36.976Z,12.02
2023-04-16T02:37:49.189Z,11.73
2023-04-16T02:38:01.659Z,15.05
2023-04-16T02:38:13.933Z,15.48
2023-04-16T02:38:28.442Z,15.40
2023-04-16T02:38:40.646Z,14.76
2023-04-16T02:38:53.083Z,14.27
2023-04-16T02:39:05.544Z,12.70
2023-04-16T02:39:18.460Z,13.38
2023-04-16T02:39:32.034Z,13.13
2023-04-16T02:39:43.977Z,13.82
2023-04-16T02:39:56.586Z,15.38
2023-04-16T02:40:10.038Z,16.15
2023-04-16T02:40:22.451Z,13.73
2023-04-16T02:40:35.314Z,13.45
2023-04-16T02:40:48.519Z,12.75
2023-04-16T02:41:02.017Z,13.85
2023-04-16T02:41:15.351Z,14.48
2023-04-16T02:41:28.448Z,14.25
2023-04-16T02:41:40.856Z,13.80
2023-04-16T02:41:53.045Z,12.20
2023-04-16T02:42:05.469Z,13.43
2023-04-16T02:42:17.889Z,13.38
2023-04-16T02:42:30.164Z,12.57
2023-04-16T02:42:42.360Z,12.10
2023-04-16T02:42:54.842Z,13.38
2023-04-16T02:43:07.394Z,13.52
2023-04-16T02:43:19.970Z,12.80
2023-04-16T02:43:32.107Z,13.15
2023-04-16T02:43:44.463Z,12.32
2023-04-16T02:43:56.343Z,11.55
2023-04-16T02:44:08.323Z,12.27
2023-04-16T02:44:20.702Z,13.90
2023-04-16T02:44:33.586Z,13.18
2023-04-16T02:44:45.686Z,11.57
2023-04-16T02:44:58.068Z,12.38
2023-04-16T02:45:11.726Z,13.10
2023-04-16T02:45:25.205Z,13.95
2023-04-16T02:45:37.313Z,14.93
2023-04-16T02:45:49.580Z,13.90
2023-04-16T02:46:01.891Z,12.48
2023-04-16T02:46:14.422Z,12.32
2023-04-16T02:46:26.868Z,13.27
2023-04-16T02:46:39.226Z,13.05
2023-04-16T02:46:51.903Z,12.35
2023-04-16T02:47:03.841Z,12.18
2023-04-16T02:47:16.654Z,12.20
2023-04-16T02:47:28.942Z,12.68
2023-04-16T02:47:41.422Z,12.52
2023-04-16T02:47:54.147Z,12.38
2023-04-16T02:48:07.043Z,12.43
2023-04-16T02:48:19.303Z,12.48